createdAt,value
2023-02-02T00:01:24.204Z,6.03
2023-02-02T00:04:39.680Z,7.38
2023-02-02T00:07:59.674Z,8.00
2023-02-02T00:11:12.698Z,5.83
2023-02-02T00:14:25.692Z,5.83
2023-02-02T00:17:38.109Z,5.43
2023-02-02T00:20:50.199Z,6.30
2023-02-02T00:27:43.508Z,5.08
2023-02-02T00:30:56.064Z,5.18
2023-02-02T00:34:08.726Z,4.85
2023-02-02T00:37:21.529Z,3.55
2023-02-02T00:40:35.470Z,5.10
2023-02-02T00:43:50.131Z,3.35
2023-02-02T00:47:02.371Z,4.28
2023-02-02T00:50:22.095Z,3.75
2023-02-02T00:53:35.624Z,3.55
2023-02-02T00:56:49.104Z,3.63
2023-02-02T01:00:01.321Z,2.98
2023-02-02T01:03:14.189Z,4.45
2023-02-02T01:10:10.008Z,3.08
2023-02-02T01:13:22.263Z,3.35
2023-02-02T01:16:34.732Z,2.98
2023-02-02T01:19:47.084Z,5.00
2023-02-02T01:23:01.167Z,3.18
2023-02-02T01:26:17.523Z,2.58
2023-02-02T01:29:30.135Z,4.40
2023-02-02T01:32:42.189Z,3.05
2023-02-02T01:35:56.612Z,3.38
2023-02-02T01:39:09.506Z,3.00
2023-02-02T01:42:27.866Z,2.85
2023-02-02T01:45:40.274Z,3.00
2023-02-02T01:48:56.803Z,4.23
2023-02-02T01:52:10.267Z,4.53
2023-02-02T01:55:26.719Z,4.15
2023-02-02T01:58:43.745Z,3.68
2023-02-02T02:01:57.905Z,4.90
2023-02-02T02:05:13.025Z,4.73
2023-02-02T02:08:28.146Z,4.75
2023-02-02T02:11:42.171Z,3.98
2023-02-02T02:15:11.651Z,4.50
2023-02-02T02:18:32.943Z,4.53
2023-02-02T02:22:12.438Z,3.93
2023-02-02T02:26:08.677Z,4.15
2023-02-02T02:29:53.329Z,3.13
2023-02-02T02:33:10.279Z,3.10
2023-02-02T02:36:29.270Z,4.25
2023-02-02T02:39:46.697Z,5.13
2023-02-02T02:43:11.212Z,3.30
2023-02-02T02:46:25.404Z,3.23
2023-02-02T02:49:37.979Z,4.75
2023-02-02T02:52:53.445Z,3.55
2023-02-02T02:56:13.354Z,4.75
2023-02-02T02:59:34.188Z,4.30
2023-02-02T03:02:52.522Z,5.48
2023-02-02T03:06:13.001Z,4.85
2023-02-02T03:09:30.499Z,4.53
2023-02-02T03:12:52.609Z,5.00
2023-02-02T03:16:06.166Z,4.18
2023-02-02T03:19:20.149Z,6.85
2023-02-02T03:22:32.900Z,6.38
2023-02-02T03:25:46.725Z,7.35
2023-02-02T03:29:02.887Z,8.58
2023-02-02T03:32:15.608Z,7.60
2023-02-02T03:35:28.950Z,8.68
2023-02-02T03:38:41.396Z,10.00
2023-02-02T03:41:53.538Z,8.60
2023-02-02T03:45:14.663Z,8.93
2023-02-02T03:48:29.149Z,6.35
2023-02-02T03:51:43.168Z,8.98
2023-02-02T03:55:06.469Z,5.15
2023-02-02T03:58:27.044Z,7.25
2023-02-02T04:01:39.313Z,6.33
2023-02-02T04:04:52.100Z,9.30
2023-02-02T04:08:09.865Z,9.18
2023-02-02T04:11:25.418Z,8.63
2023-02-02T04:14:37.942Z,6.95
2023-02-02T04:17:52.806Z,8.65
2023-02-02T04:21:08.880Z,6.43
2023-02-02T04:24:22.348Z,11.90
2023-02-02T04:42:35.164Z,6.70
2023-02-02T04:49:58.013Z,10.13
2023-02-02T04:53:24.100Z,9.85
2023-02-02T04:56:36.595Z,11.18
2023-02-02T04:59:49.010Z,11.73
2023-02-02T05:03:01.332Z,8.35
2023-02-02T05:06:15.869Z,10.53
2023-02-02T05:09:28.364Z,11.48
2023-02-02T05:12:40.411Z,12.20
2023-02-02T05:15:52.472Z,9.05
2023-02-02T05:19:04.849Z,6.38
2023-02-02T05:22:17.009Z,10.63
2023-02-02T05:25:42.486Z,10.30
2023-02-02T05:28:55.145Z,10.23
2023-02-02T05:32:07.513Z,9.88
2023-02-02T05:35:19.937Z,15.00
2023-02-02T05:38:32.090Z,10.58
2023-02-02T05:41:44.476Z,11.95
2023-02-02T05:45:05.367Z,8.13
2023-02-02T06:44:49.351Z,14.48
2023-02-02T06:51:39.842Z,10.58
2023-02-02T06:57:52.191Z,13.10
2023-02-02T07:01:09.855Z,9.73
2023-02-02T07:04:22.631Z,6.55
2023-02-02T07:11:13.953Z,7.48
2023-02-02T07:13:53.372Z,7.15
2023-02-02T07:17:05.493Z,11.88
2023-02-02T07:20:18.924Z,7.30
2023-02-02T07:23:31.087Z,10.73
2023-02-02T07:26:43.729Z,8.23
2023-02-02T07:29:55.870Z,7.98
2023-02-02T07:33:07.883Z,8.15
2023-02-02T07:36:23.569Z,7.45
2023-02-02T07:39:35.594Z,10.88
2023-02-02T07:42:47.661Z,9.08
2023-02-02T07:46:08.248Z,7.75
2023-02-02T07:49:23.427Z,8.40
2023-02-02T07:52:36.589Z,7.75
2023-02-02T07:55:48.657Z,9.10
2023-02-02T07:59:02.397Z,9.28
2023-02-02T08:02:15.726Z,8.78
2023-02-02T08:05:28.049Z,6.73
2023-02-02T08:08:40.355Z,8.10
2023-02-02T08:11:52.697Z,6.75
2023-02-02T08:15:04.706Z,8.38
2023-02-02T08:18:17.116Z,4.40
2023-02-02T08:21:29.584Z,6.43
2023-02-02T08:24:43.034Z,6.65
2023-02-02T08:27:58.883Z,6.13
2023-02-02T08:31:15.442Z,7.80
2023-02-02T08:34:27.543Z,8.13
2023-02-02T08:37:39.607Z,6.80
2023-02-02T08:40:53.018Z,5.63
2023-02-02T08:44:05.004Z,6.45
2023-02-02T08:47:17.248Z,8.13
2023-02-02T08:50:29.440Z,8.80
2023-02-02T08:53:41.987Z,7.70
2023-02-02T08:56:54.125Z,8.05
2023-02-02T09:00:06.877Z,7.80
2023-02-02T09:03:19.203Z,9.70
2023-02-02T09:06:35.361Z,7.98
2023-02-02T09:09:47.534Z,7.43
2023-02-02T09:12:59.591Z,7.23
2023-02-02T09:16:15.196Z,7.68
2023-02-02T09:19:27.252Z,6.33
2023-02-02T09:22:39.439Z,7.73
2023-02-02T09:25:51.489Z,5.48
2023-02-02T09:29:05.774Z,6.53
2023-02-02T09:32:18.072Z,6.93
2023-02-02T09:35:30.318Z,9.90
2023-02-02T09:38:43.313Z,5.45
2023-02-02T09:42:31.970Z,8.03
2023-02-02T09:45:52.404Z,6.25
2023-02-02T09:49:09.789Z,8.75
2023-02-02T09:52:27.697Z,9.63
2023-02-02T09:55:43.620Z,10.75
2023-02-02T09:59:10.198Z,8.03
2023-02-02T10:02:21.423Z,8.98
2023-02-02T10:05:40.131Z,11.53
2023-02-02T10:08:56.941Z,8.15
2023-02-02T10:12:20.352Z,9.43
2023-02-02T10:15:38.395Z,8.15
2023-02-02T10:18:54.762Z,6.40
2023-02-02T10:22:14.043Z,8.95
2023-02-02T10:25:28.719Z,9.75
2023-02-02T10:28:58.781Z,7.28
2023-02-02T10:32:21.579Z,7.23
2023-02-02T10:35:45.907Z,7.90
2023-02-02T10:39:03.635Z,4.70
2023-02-02T10:42:23.159Z,4.95
2023-02-02T10:45:35.577Z,6.68
2023-02-02T10:48:52.915Z,5.28
2023-02-02T10:52:12.548Z,8.63
2023-02-02T10:55:33.103Z,8.15
2023-02-02T10:58:50.999Z,7.75
2023-02-02T11:02:18.989Z,7.08
2023-02-02T11:05:41.280Z,6.93
2023-02-02T11:08:56.961Z,6.73
2023-02-02T11:12:20.199Z,6.03
2023-02-02T11:15:35.666Z,8.00
2023-02-02T11:18:48.978Z,5.63
2023-02-02T11:22:05.910Z,6.33
2023-02-02T11:28:41.834Z,7.88
2023-02-02T11:31:53.828Z,10.55
2023-02-02T11:35:29.678Z,9.58
2023-02-02T11:38:41.707Z,8.33
2023-02-02T11:41:53.839Z,9.38
2023-02-02T11:45:07.365Z,8.80
2023-02-02T11:48:25.634Z,11.48
2023-02-02T11:51:39.379Z,9.85
2023-02-02T11:54:56.259Z,9.15
2023-02-02T11:58:32.287Z,11.63
2023-02-02T12:01:45.327Z,9.88
2023-02-02T12:05:01.243Z,9.48
2023-02-02T12:08:14.781Z,9.63
2023-02-02T12:11:41.938Z,10.68
2023-02-02T12:14:59.289Z,10.10
2023-02-02T12:18:21.346Z,11.48
2023-02-02T12:21:42.860Z,12.03
2023-02-02T12:25:00.185Z,12.78
2023-02-02T12:28:21.869Z,9.68
2023-02-02T12:31:40.939Z,10.43
2023-02-02T12:35:04.701Z,9.98
2023-02-02T12:38:25.041Z,7.85
2023-02-02T12:41:50.804Z,8.20
2023-02-02T12:45:31.808Z,7.08
2023-02-02T12:48:58.363Z,7.78
2023-02-02T12:52:35.757Z,7.18
2023-02-02T12:55:54.622Z,7.75
2023-02-02T12:59:13.992Z,6.93
2023-02-02T13:02:32.444Z,6.63
2023-02-02T13:05:59.690Z,5.10
2023-02-02T13:09:19.904Z,6.25
2023-02-02T13:12:33.928Z,4.55
2023-02-02T13:15:51.343Z,6.28
2023-02-02T13:19:08.445Z,5.73
2023-02-02T13:25:39.724Z,7.68
2023-02-02T13:28:57.235Z,10.93
2023-02-02T13:32:15.816Z,7.20
2023-02-02T13:35:31.695Z,6.60
2023-02-02T13:38:45.792Z,7.83
2023-02-02T13:42:00.173Z,10.55
2023-02-02T13:45:33.070Z,7.50
2023-02-02T13:48:55.196Z,6.70
2023-02-02T13:52:37.037Z,8.18
2023-02-02T13:56:30.328Z,7.40
2023-02-02T13:59:58.841Z,10.85
2023-02-02T14:03:25.767Z,6.53
2023-02-02T14:06:56.319Z,8.70
2023-02-02T14:10:09.212Z,7.23
2023-02-02T14:13:54.590Z,6.43
2023-02-02T14:17:09.501Z,6.90
2023-02-02T14:20:52.197Z,11.95
2023-02-02T14:24:05.131Z,8.13
2023-02-02T14:28:02.793Z,8.98
2023-02-02T14:31:58.723Z,9.85
2023-02-02T14:35:55.838Z,10.38
2023-02-02T14:39:26.872Z,11.38
2023-02-02T14:43:08.741Z,11.88
2023-02-02T14:46:51.105Z,9.80
2023-02-02T14:50:06.888Z,10.15
2023-02-02T14:53:30.172Z,9.78
2023-02-02T14:56:54.665Z,11.90
2023-02-02T15:00:08.860Z,8.85
2023-02-02T15:03:55.146Z,8.18
2023-02-02T15:07:39.607Z,13.43
2023-02-02T15:11:34.749Z,12.13
2023-02-02T15:14:52.155Z,10.90
2023-02-02T15:18:17.581Z,10.50
2023-02-02T15:21:35.535Z,11.98
2023-02-02T15:24:54.400Z,12.85
2023-02-02T15:28:15.536Z,13.90
2023-02-02T15:31:34.504Z,12.85
2023-02-02T15:34:53.238Z,11.73
2023-02-02T15:38:10.275Z,9.98
2023-02-02T15:41:32.569Z,11.48
2023-02-02T15:44:46.549Z,9.03
2023-02-02T15:48:05.004Z,7.57
2023-02-02T15:51:24.929Z,8.63
2023-02-02T15:54:42.200Z,10.28
2023-02-02T15:57:56.366Z,10.68
2023-02-02T16:01:20.578Z,6.28
2023-02-02T16:04:41.867Z,5.50
2023-02-02T16:08:05.572Z,9.48
2023-02-02T16:11:21.435Z,10.20
2023-02-02T16:14:36.376Z,7.75
2023-02-02T16:17:48.728Z,7.03
2023-02-02T16:21:03.939Z,7.03
2023-02-02T16:24:21.888Z,6.53
2023-02-02T16:27:35.892Z,6.13
2023-02-02T16:30:52.917Z,5.43
2023-02-02T16:34:05.441Z,5.28
2023-02-02T16:37:27.439Z,6.65
2023-02-02T16:40:43.250Z,4.93
2023-02-02T16:43:58.226Z,7.13
2023-02-02T16:47:19.505Z,7.10
2023-02-02T16:50:57.737Z,10.20
2023-02-02T16:54:26.803Z,8.23
2023-02-02T16:57:43.471Z,9.55
2023-02-02T17:01:16.805Z,10.80
2023-02-02T17:04:32.431Z,8.93
2023-02-02T17:08:04.648Z,9.80
2023-02-02T17:11:34.317Z,7.48
2023-02-02T17:15:19.679Z,7.60
2023-02-02T17:18:32.807Z,4.15
2023-02-02T17:21:48.556Z,6.95
2023-02-02T17:25:00.914Z,7.83
2023-02-02T17:28:17.164Z,4.88
2023-02-02T17:31:29.617Z,6.75
2023-02-02T17:34:41.918Z,4.85
2023-02-02T17:37:54.283Z,7.53
2023-02-02T17:41:08.711Z,5.18
2023-02-02T17:44:20.983Z,6.03
2023-02-02T17:47:33.273Z,5.88
2023-02-02T17:54:27.064Z,8.78
2023-02-02T17:57:39.230Z,4.90
2023-02-02T18:00:53.499Z,5.98
2023-02-02T18:04:06.792Z,5.75
2023-02-02T18:07:19.043Z,6.78
2023-02-02T18:10:31.520Z,8.33
2023-02-02T18:25:25.528Z,11.65
2023-02-02T18:28:38.002Z,10.33
2023-02-02T18:31:50.310Z,10.90
2023-02-02T18:35:02.640Z,12.85
2023-02-02T18:38:14.997Z,14.58
2023-02-02T18:45:38.324Z,12.95
2023-02-02T18:48:51.003Z,11.15
2023-02-02T18:52:03.717Z,13.43
2023-02-02T18:55:19.953Z,13.13
2023-02-02T18:58:32.342Z,12.70
2023-02-02T19:01:44.775Z,10.90
2023-02-02T19:05:12.272Z,9.38
2023-02-02T19:08:24.844Z,12.88
2023-02-02T19:11:43.057Z,8.38
2023-02-02T19:14:56.043Z,11.18
2023-02-02T19:18:11.882Z,14.28
2023-02-02T19:21:24.390Z,11.63
2023-02-02T19:24:43.055Z,13.95
2023-02-02T19:27:55.434Z,10.50
2023-02-02T19:31:13.170Z,10.80
2023-02-02T19:34:28.680Z,12.03
2023-02-02T19:37:46.317Z,12.53
2023-02-02T19:40:58.321Z,12.35
2023-02-02T19:44:19.018Z,10.08
2023-02-02T19:47:36.570Z,11.50
2023-02-02T19:50:50.623Z,10.38
2023-02-02T19:54:06.615Z,11.88
2023-02-02T19:57:28.007Z,14.68
2023-02-02T20:00:45.089Z,11.03
2023-02-02T20:07:18.557Z,14.10
2023-02-02T20:10:33.256Z,13.15
2023-02-02T20:13:49.830Z,14.20
2023-02-02T20:20:44.390Z,14.33
2023-02-02T20:23:56.626Z,15.33
2023-02-02T20:27:18.521Z,17.28
2023-02-02T20:30:34.769Z,14.23
2023-02-02T20:33:52.993Z,14.35
2023-02-02T20:37:16.728Z,14.65
2023-02-02T20:40:35.554Z,16.10
2023-02-02T20:43:48.192Z,19.80
2023-02-02T20:47:02.626Z,17.23
